sensor_id;sensor_type;location;lat;lon;timestamp;P1;durP1;ratioP1;P2;durP2;ratioP2
24715;SDS011;12822;50.124;8.678;2023-02-14T00:01:12;29.90;;;17.00;;
24715;SDS011;12822;50.124;8.678;2023-02-14T00:03:42;29.70;;;16.75;;
24715;SDS011;12822;50.124;8.678;2023-02-14T00:06:09;31.08;;;16.80;;
24715;SDS011;12822;50.124;8.678;2023-02-14T00:08:35;32.42;;;17.85;;
24715;SDS011;12822;50.124;8.678;2023-02-14T00:11:02;30.00;;;16.98;;
24715;SDS011;12822;50.124;8.678;2023-02-14T00:13:28;32.75;;;16.88;;
24715;SDS011;12822;50.124;8.678;2023-02-14T00:15:54;32.55;;;17.20;;
24715;SDS011;12822;50.124;8.678;2023-02-14T00:18:20;30.88;;;17.50;;
24715;SDS011;12822;50.124;8.678;2023-02-14T00:20:46;30.05;;;17.08;;
24715;SDS011;12822;50.124;8.678;2023-02-14T00:23:12;34.63;;;17.25;;
24715;SDS011;12822;50.124;8.678;2023-02-14T00:25:38;30.83;;;16.63;;
24715;SDS011;12822;50.124;8.678;2023-02-14T00:28:04;32.25;;;17.60;;
24715;SDS011;12822;50.124;8.678;2023-02-14T00:30:30;31.33;;;18.27;;
24715;SDS011;12822;50.124;8.678;2023-02-14T00:32:56;29.92;;;16.92;;
24715;SDS011;12822;50.124;8.678;2023-02-14T00:35:22;32.58;;;18.10;;
24715;SDS011;12822;50.124;8.678;2023-02-14T00:37:48;39.05;;;19.70;;
24715;SDS011;12822;50.124;8.678;2023-02-14T00:40:14;33.70;;;18.70;;
24715;SDS011;12822;50.124;8.678;2023-02-14T00:42:40;31.85;;;17.67;;
24715;SDS011;12822;50.124;8.678;2023-02-14T00:45:06;36.45;;;19.13;;
24715;SDS011;12822;50.124;8.678;2023-02-14T00:47:32;36.95;;;18.27;;
24715;SDS011;12822;50.124;8.678;2023-02-14T00:50:01;36.53;;;18.98;;
24715;SDS011;12822;50.124;8.678;2023-02-14T00:52:29;34.65;;;20.05;;
24715;SDS011;12822;50.124;8.678;2023-02-14T00:54:55;37.65;;;19.75;;
24715;SDS011;12822;50.124;8.678;2023-02-14T00:57:21;38.70;;;19.20;;
24715;SDS011;12822;50.124;8.678;2023-02-14T00:59:47;36.92;;;20.00;;
24715;SDS011;12822;50.124;8.678;2023-02-14T01:02:13;39.17;;;21.48;;
24715;SDS011;12822;50.124;8.678;2023-02-14T01:04:39;34.47;;;19.23;;
24715;SDS011;12822;50.124;8.678;2023-02-14T01:07:05;37.17;;;20.75;;
24715;SDS011;12822;50.124;8.678;2023-02-14T01:09:31;33.50;;;18.70;;
24715;SDS011;12822;50.124;8.678;2023-02-14T01:11:57;38.00;;;20.42;;
24715;SDS011;12822;50.124;8.678;2023-02-14T01:14:23;34.65;;;18.83;;
24715;SDS011;12822;50.124;8.678;2023-02-14T01:16:49;36.45;;;19.30;;
24715;SDS011;12822;50.124;8.678;2023-02-14T01:19:15;39.35;;;20.20;;
24715;SDS011;12822;50.124;8.678;2023-02-14T01:21:41;35.72;;;19.42;;
24715;SDS011;12822;50.124;8.678;2023-02-14T01:24:07;37.65;;;20.30;;
24715;SDS011;12822;50.124;8.678;2023-02-14T01:26:33;35.35;;;19.50;;
24715;SDS011;12822;50.124;8.678;2023-02-14T01:28:59;37.50;;;20.48;;
24715;SDS011;12822;50.124;8.678;2023-02-14T01:31:28;36.35;;;20.00;;
24715;SDS011;12822;50.124;8.678;2023-02-14T01:33:54;38.58;;;21.55;;
24715;SDS011;12822;50.124;8.678;2023-02-14T01:36:27;42.20;;;22.10;;
24715;SDS011;12822;50.124;8.678;2023-02-14T01:38:55;41.15;;;22.05;;
24715;SDS011;12822;50.124;8.678;2023-02-14T01:41:22;39.03;;;21.63;;
24715;SDS011;12822;50.124;8.678;2023-02-14T01:46:15;37.58;;;21.20;;
24715;SDS011;12822;50.124;8.678;2023-02-14T01:48:41;39.13;;;21.67;;
24715;SDS011;12822;50.124;8.678;2023-02-14T01:51:07;42.42;;;21.88;;
24715;SDS011;12822;50.124;8.678;2023-02-14T01:53:33;41.42;;;21.80;;
24715;SDS011;12822;50.124;8.678;2023-02-14T01:56:01;38.85;;;21.40;;
24715;SDS011;12822;50.124;8.678;2023-02-14T01:58:28;42.70;;;21.65;;
24715;SDS011;12822;50.124;8.678;2023-02-14T02:00:55;42.00;;;21.67;;
24715;SDS011;12822;50.124;8.678;2023-02-14T02:03:26;42.67;;;22.05;;
24715;SDS011;12822;50.124;8.678;2023-02-14T02:06:10;40.83;;;21.95;;
24715;SDS011;12822;50.124;8.678;2023-02-14T02:08:50;40.08;;;21.15;;
24715;SDS011;12822;50.124;8.678;2023-02-14T02:11:20;36.70;;;20.90;;
24715;SDS011;12822;50.124;8.678;2023-02-14T02:13:46;37.05;;;21.45;;
24715;SDS011;12822;50.124;8.678;2023-02-14T02:19:03;40.97;;;21.48;;
24715;SDS011;12822;50.124;8.678;2023-02-14T02:24:17;39.80;;;20.52;;
24715;SDS011;12822;50.124;8.678;2023-02-14T02:26:57;39.75;;;21.30;;
24715;SDS011;12822;50.124;8.678;2023-02-14T02:32:35;40.15;;;22.52;;
24715;SDS011;12822;50.124;8.678;2023-02-14T02:53:38;38.75;;;21.73;;
24715;SDS011;12822;50.124;8.678;2023-02-14T02:55:57;41.80;;;22.08;;
24715;SDS011;12822;50.124;8.678;2023-02-14T02:58:44;44.08;;;22.38;;
24715;SDS011;12822;50.124;8.678;2023-02-14T03:01:15;45.72;;;24.23;;
24715;SDS011;12822;50.124;8.678;2023-02-14T03:03:43;47.92;;;24.17;;
24715;SDS011;12822;50.124;8.678;2023-02-14T03:06:29;48.17;;;24.13;;
24715;SDS011;12822;50.124;8.678;2023-02-14T03:08:55;46.58;;;23.40;;
24715;SDS011;12822;50.124;8.678;2023-02-14T03:11:21;47.45;;;24.08;;
24715;SDS011;12822;50.124;8.678;2023-02-14T03:22:53;50.08;;;25.17;;
24715;SDS011;12822;50.124;8.678;2023-02-14T03:25:53;51.58;;;27.15;;
24715;SDS011;12822;50.124;8.678;2023-02-14T03:27:44;51.00;;;26.13;;
24715;SDS011;12822;50.124;8.678;2023-02-14T03:32:38;59.03;;;26.05;;
24715;SDS011;12822;50.124;8.678;2023-02-14T03:37:52;51.17;;;25.33;;
24715;SDS011;12822;50.124;8.678;2023-02-14T03:40:31;47.88;;;24.60;;
24715;SDS011;12822;50.124;8.678;2023-02-14T03:43:04;48.97;;;25.48;;
24715;SDS011;12822;50.124;8.678;2023-02-14T03:45:35;57.03;;;25.55;;
24715;SDS011;12822;50.124;8.678;2023-02-14T03:48:03;47.75;;;25.08;;
24715;SDS011;12822;50.124;8.678;2023-02-14T03:50:31;45.40;;;24.60;;
24715;SDS011;12822;50.124;8.678;2023-02-14T03:52:57;46.03;;;24.30;;
24715;SDS011;12822;50.124;8.678;2023-02-14T03:55:31;47.65;;;24.15;;
24715;SDS011;12822;50.124;8.678;2023-02-14T03:58:01;45.33;;;23.05;;
24715;SDS011;12822;50.124;8.678;2023-02-14T04:00:28;41.57;;;23.47;;
24715;SDS011;12822;50.124;8.678;2023-02-14T04:02:56;46.03;;;24.13;;
24715;SDS011;12822;50.124;8.678;2023-02-14T04:05:25;47.50;;;25.00;;
24715;SDS011;12822;50.124;8.678;2023-02-14T04:07:56;44.90;;;23.25;;
24715;SDS011;12822;50.124;8.678;2023-02-14T04:10:22;46.28;;;23.20;;
24715;SDS011;12822;50.124;8.678;2023-02-14T04:12:49;46.13;;;23.73;;
24715;SDS011;12822;50.124;8.678;2023-02-14T04:15:15;44.00;;;22.88;;
24715;SDS011;12822;50.124;8.678;2023-02-14T04:17:41;50.45;;;25.27;;
24715;SDS011;12822;50.124;8.678;2023-02-14T04:20:25;46.45;;;22.80;;
24715;SDS011;12822;50.124;8.678;2023-02-14T04:22:52;45.90;;;23.20;;
24715;SDS011;12822;50.124;8.678;2023-02-14T04:25:18;46.40;;;22.90;;
24715;SDS011;12822;50.124;8.678;2023-02-14T04:27:44;45.75;;;23.83;;
24715;SDS011;12822;50.124;8.678;2023-02-14T04:30:10;44.17;;;23.85;;
24715;SDS011;12822;50.124;8.678;2023-02-14T04:32:37;48.63;;;23.23;;
24715;SDS011;12822;50.124;8.678;2023-02-14T04:35:04;43.03;;;22.42;;
24715;SDS011;12822;50.124;8.678;2023-02-14T04:37:30;45.15;;;23.15;;
24715;SDS011;12822;50.124;8.678;2023-02-14T04:39:56;47.90;;;23.63;;
24715;SDS011;12822;50.124;8.678;2023-02-14T04:42:22;47.35;;;23.20;;
24715;SDS011;12822;50.124;8.678;2023-02-14T04:44:48;44.55;;;23.67;;
24715;SDS011;12822;50.124;8.678;2023-02-14T04:47:14;42.30;;;23.25;;
24715;SDS011;12822;50.124;8.678;2023-02-14T04:49:40;42.67;;;22.65;;
24715;SDS011;12822;50.124;8.678;2023-02-14T04:52:06;49.03;;;23.33;;
24715;SDS011;12822;50.124;8.678;2023-02-14T04:54:32;49.83;;;24.50;;
24715;SDS011;12822;50.124;8.678;2023-02-14T04:56:58;50.88;;;25.02;;
24715;SDS011;12822;50.124;8.678;2023-02-14T04:59:24;58.38;;;26.42;;
24715;SDS011;12822;50.124;8.678;2023-02-14T05:01:50;63.33;;;27.90;;
24715;SDS011;12822;50.124;8.678;2023-02-14T05:04:16;56.63;;;27.38;;
24715;SDS011;12822;50.124;8.678;2023-02-14T05:06:42;57.38;;;26.23;;
24715;SDS011;12822;50.124;8.678;2023-02-14T05:09:08;60.72;;;25.77;;
24715;SDS011;12822;50.124;8.678;2023-02-14T05:11:34;61.22;;;26.58;;
24715;SDS011;12822;50.124;8.678;2023-02-14T05:14:00;59.50;;;27.10;;
24715;SDS011;12822;50.124;8.678;2023-02-14T05:16:29;63.65;;;27.25;;
24715;SDS011;12822;50.124;8.678;2023-02-14T05:18:55;58.63;;;26.13;;
24715;SDS011;12822;50.124;8.678;2023-02-14T05:21:21;56.83;;;25.63;;
24715;SDS011;12822;50.124;8.678;2023-02-14T05:23:47;53.47;;;24.08;;
24715;SDS011;12822;50.124;8.678;2023-02-14T05:26:13;56.65;;;24.67;;
24715;SDS011;12822;50.124;8.678;2023-02-14T05:28:39;56.10;;;24.98;;
24715;SDS011;12822;50.124;8.678;2023-02-14T05:31:06;63.47;;;23.55;;
24715;SDS011;12822;50.124;8.678;2023-02-14T05:33:32;54.25;;;23.58;;
24715;SDS011;12822;50.124;8.678;2023-02-14T05:35:58;63.70;;;23.80;;
24715;SDS011;12822;50.124;8.678;2023-02-14T05:38:26;58.33;;;23.65;;
24715;SDS011;12822;50.124;8.678;2023-02-14T05:40:53;59.90;;;24.27;;
24715;SDS011;12822;50.124;8.678;2023-02-14T05:43:19;86.95;;;24.90;;
24715;SDS011;12822;50.124;8.678;2023-02-14T05:45:45;74.15;;;25.42;;
24715;SDS011;12822;50.124;8.678;2023-02-14T05:48:11;59.83;;;25.08;;
24715;SDS011;12822;50.124;8.678;2023-02-14T05:50:37;67.82;;;24.10;;
24715;SDS011;12822;50.124;8.678;2023-02-14T05:53:03;69.45;;;24.58;;
24715;SDS011;12822;50.124;8.678;2023-02-14T05:55:29;62.30;;;25.25;;
24715;SDS011;12822;50.124;8.678;2023-02-14T05:57:55;60.58;;;24.55;;
24715;SDS011;12822;50.124;8.678;2023-02-14T06:00:21;61.00;;;23.95;;
24715;SDS011;12822;50.124;8.678;2023-02-14T06:02:48;60.50;;;23.73;;
24715;SDS011;12822;50.124;8.678;2023-02-14T06:05:14;57.38;;;23.10;;
24715;SDS011;12822;50.124;8.678;2023-02-14T06:07:42;55.10;;;24.10;;
24715;SDS011;12822;50.124;8.678;2023-02-14T06:10:14;57.97;;;24.48;;
24715;SDS011;12822;50.124;8.678;2023-02-14T06:12:40;54.13;;;24.42;;
24715;SDS011;12822;50.124;8.678;2023-02-14T06:15:06;57.20;;;24.77;;
24715;SDS011;12822;50.124;8.678;2023-02-14T06:17:32;57.88;;;23.55;;
24715;SDS011;12822;50.124;8.678;2023-02-14T06:19:58;51.35;;;23.95;;
24715;SDS011;12822;50.124;8.678;2023-02-14T06:22:24;59.97;;;23.58;;
24715;SDS011;12822;50.124;8.678;2023-02-14T06:24:50;55.00;;;24.52;;
24715;SDS011;12822;50.124;8.678;2023-02-14T06:27:16;54.97;;;23.48;;
24715;SDS011;12822;50.124;8.678;2023-02-14T06:29:42;54.58;;;24.88;;
24715;SDS011;12822;50.124;8.678;2023-02-14T06:32:08;52.72;;;23.15;;
24715;SDS011;12822;50.124;8.678;2023-02-14T06:34:34;51.72;;;23.58;;
24715;SDS011;12822;50.124;8.678;2023-02-14T06:37:00;56.45;;;24.63;;
24715;SDS011;12822;50.124;8.678;2023-02-14T06:39:26;55.75;;;24.08;;
24715;SDS011;12822;50.124;8.678;2023-02-14T06:41:52;57.15;;;23.52;;
24715;SDS011;12822;50.124;8.678;2023-02-14T06:44:18;52.95;;;24.08;;
24715;SDS011;12822;50.124;8.678;2023-02-14T06:46:44;54.83;;;23.98;;
24715;SDS011;12822;50.124;8.678;2023-02-14T06:49:10;51.92;;;23.55;;
24715;SDS011;12822;50.124;8.678;2023-02-14T06:51:36;49.63;;;21.83;;
24715;SDS011;12822;50.124;8.678;2023-02-14T06:54:02;48.90;;;21.67;;
24715;SDS011;12822;50.124;8.678;2023-02-14T06:56:28;38.08;;;19.17;;
24715;SDS011;12822;50.124;8.678;2023-02-14T06:58:54;49.00;;;21.75;;
24715;SDS011;12822;50.124;8.678;2023-02-14T07:01:20;48.80;;;21.25;;
24715;SDS011;12822;50.124;8.678;2023-02-14T07:03:46;42.45;;;20.27;;
24715;SDS011;12822;50.124;8.678;2023-02-14T07:06:12;47.80;;;21.85;;
24715;SDS011;12822;50.124;8.678;2023-02-14T07:08:38;43.78;;;21.85;;
24715;SDS011;12822;50.124;8.678;2023-02-14T07:11:04;40.72;;;20.15;;
24715;SDS011;12822;50.124;8.678;2023-02-14T07:13:30;39.85;;;19.48;;
24715;SDS011;12822;50.124;8.678;2023-02-14T07:15:56;38.30;;;18.75;;
24715;SDS011;12822;50.124;8.678;2023-02-14T07:18:22;38.08;;;19.02;;
24715;SDS011;12822;50.124;8.678;2023-02-14T07:20:48;37.88;;;18.58;;
24715;SDS011;12822;50.124;8.678;2023-02-14T07:23:15;37.85;;;17.85;;
24715;SDS011;12822;50.124;8.678;2023-02-14T07:25:41;39.67;;;18.77;;
24715;SDS011;12822;50.124;8.678;2023-02-14T07:28:10;38.65;;;19.92;;
24715;SDS011;12822;50.124;8.678;2023-02-14T07:30:36;36.63;;;18.35;;
24715;SDS011;12822;50.124;8.678;2023-02-14T07:33:02;36.85;;;19.60;;
24715;SDS011;12822;50.124;8.678;2023-02-14T07:35:28;31.52;;;16.35;;
24715;SDS011;12822;50.124;8.678;2023-02-14T07:37:54;33.45;;;16.13;;
24715;SDS011;12822;50.124;8.678;2023-02-14T07:40:20;36.22;;;17.35;;
24715;SDS011;12822;50.124;8.678;2023-02-14T07:42:53;39.13;;;18.08;;
24715;SDS011;12822;50.124;8.678;2023-02-14T07:45:24;31.00;;;16.67;;
24715;SDS011;12822;50.124;8.678;2023-02-14T07:47:51;35.20;;;17.55;;
24715;SDS011;12822;50.124;8.678;2023-02-14T07:50:18;33.88;;;16.83;;
24715;SDS011;12822;50.124;8.678;2023-02-14T07:52:44;32.22;;;16.45;;
24715;SDS011;12822;50.124;8.678;2023-02-14T07:55:11;34.42;;;17.35;;
24715;SDS011;12822;50.124;8.678;2023-02-14T07:57:37;34.42;;;17.75;;
24715;SDS011;12822;50.124;8.678;2023-02-14T08:00:03;36.83;;;17.73;;
24715;SDS011;12822;50.124;8.678;2023-02-14T08:02:30;33.30;;;17.50;;
24715;SDS011;12822;50.124;8.678;2023-02-14T08:04:56;36.53;;;19.30;;
24715;SDS011;12822;50.124;8.678;2023-02-14T08:07:22;43.35;;;18.30;;
24715;SDS011;12822;50.124;8.678;2023-02-14T08:09:48;37.20;;;18.20;;
24715;SDS011;12822;50.124;8.678;2023-02-14T08:12:14;34.05;;;16.48;;
24715;SDS011;12822;50.124;8.678;2023-02-14T08:14:58;32.15;;;17.67;;
24715;SDS011;12822;50.124;8.678;2023-02-14T08:17:44;36.00;;;18.23;;
24715;SDS011;12822;50.124;8.678;2023-02-14T08:20:11;33.33;;;15.85;;
24715;SDS011;12822;50.124;8.678;2023-02-14T08:22:37;37.90;;;18.60;;
24715;SDS011;12822;50.124;8.678;2023-02-14T08:25:03;35.50;;;16.90;;
24715;SDS011;12822;50.124;8.678;2023-02-14T08:27:29;39.03;;;18.48;;
24715;SDS011;12822;50.124;8.678;2023-02-14T08:29:55;36.55;;;16.65;;
24715;SDS011;12822;50.124;8.678;2023-02-14T08:32:21;35.85;;;17.08;;
24715;SDS011;12822;50.124;8.678;2023-02-14T08:34:47;34.95;;;16.88;;
24715;SDS011;12822;50.124;8.678;2023-02-14T08:37:13;33.55;;;17.38;;
24715;SDS011;12822;50.124;8.678;2023-02-14T08:39:39;34.97;;;17.70;;
24715;SDS011;12822;50.124;8.678;2023-02-14T08:42:05;37.00;;;18.23;;
24715;SDS011;12822;50.124;8.678;2023-02-14T08:44:31;38.85;;;18.38;;
24715;SDS011;12822;50.124;8.678;2023-02-14T08:46:57;36.45;;;17.85;;
24715;SDS011;12822;50.124;8.678;2023-02-14T08:49:23;39.58;;;17.77;;
24715;SDS011;12822;50.124;8.678;2023-02-14T08:51:49;33.25;;;16.75;;
24715;SDS011;12822;50.124;8.678;2023-02-14T08:54:15;35.42;;;17.42;;
24715;SDS011;12822;50.124;8.678;2023-02-14T08:56:41;36.70;;;18.23;;
24715;SDS011;12822;50.124;8.678;2023-02-14T08:59:07;36.78;;;17.42;;
24715;SDS011;12822;50.124;8.678;2023-02-14T09:01:33;36.38;;;17.55;;
24715;SDS011;12822;50.124;8.678;2023-02-14T09:04:00;37.10;;;17.95;;
24715;SDS011;12822;50.124;8.678;2023-02-14T09:06:27;41.42;;;17.83;;
24715;SDS011;12822;50.124;8.678;2023-02-14T09:08:54;37.53;;;18.90;;
24715;SDS011;12822;50.124;8.678;2023-02-14T09:11:22;37.15;;;18.08;;
24715;SDS011;12822;50.124;8.678;2023-02-14T09:13:48;40.15;;;19.05;;
24715;SDS011;12822;50.124;8.678;2023-02-14T09:16:15;39.63;;;18.85;;
24715;SDS011;12822;50.124;8.678;2023-02-14T09:18:42;40.75;;;19.02;;
24715;SDS011;12822;50.124;8.678;2023-02-14T09:21:11;37.53;;;18.42;;
24715;SDS011;12822;50.124;8.678;2023-02-14T09:23:38;39.38;;;18.17;;
24715;SDS011;12822;50.124;8.678;2023-02-14T09:26:05;37.15;;;18.88;;
24715;SDS011;12822;50.124;8.678;2023-02-14T09:28:32;42.35;;;19.17;;
24715;SDS011;12822;50.124;8.678;2023-02-14T09:31:00;38.47;;;18.08;;
24715;SDS011;12822;50.124;8.678;2023-02-14T09:33:32;37.38;;;18.23;;
24715;SDS011;12822;50.124;8.678;2023-02-14T09:35:58;38.83;;;19.00;;
24715;SDS011;12822;50.124;8.678;2023-02-14T09:38:43;40.60;;;19.13;;
24715;SDS011;12822;50.124;8.678;2023-02-14T09:41:14;42.50;;;20.30;;
24715;SDS011;12822;50.124;8.678;2023-02-14T09:44:06;40.00;;;20.77;;
24715;SDS011;12822;50.124;8.678;2023-02-14T09:46:33;44.17;;;21.08;;
24715;SDS011;12822;50.124;8.678;2023-02-14T09:49:00;41.88;;;21.30;;
24715;SDS011;12822;50.124;8.678;2023-02-14T09:51:27;40.28;;;19.70;;
24715;SDS011;12822;50.124;8.678;2023-02-14T09:54:00;38.55;;;19.92;;
24715;SDS011;12822;50.124;8.678;2023-02-14T09:59:04;39.95;;;19.00;;
24715;SDS011;12822;50.124;8.678;2023-02-14T10:01:47;40.70;;;19.65;;
24715;SDS011;12822;50.124;8.678;2023-02-14T10:11:38;41.22;;;19.30;;
24715;SDS011;12822;50.124;8.678;2023-02-14T10:14:24;38.70;;;19.20;;
24715;SDS011;12822;50.124;8.678;2023-02-14T10:26:44;41.90;;;20.27;;
24715;SDS011;12822;50.124;8.678;2023-02-14T10:29:12;39.85;;;18.52;;
24715;SDS011;12822;50.124;8.678;2023-02-14T10:32:13;40.13;;;18.23;;
24715;SDS011;12822;50.124;8.678;2023-02-14T10:37:08;36.92;;;17.77;;
24715;SDS011;12822;50.124;8.678;2023-02-14T10:39:53;42.10;;;19.20;;
24715;SDS011;12822;50.124;8.678;2023-02-14T10:44:55;36.65;;;16.30;;
24715;SDS011;12822;50.124;8.678;2023-02-14T10:55:23;43.25;;;20.00;;
24715;SDS011;12822;50.124;8.678;2023-02-14T10:57:52;41.95;;;20.23;;
24715;SDS011;12822;50.124;8.678;2023-02-14T11:00:27;40.30;;;20.58;;
24715;SDS011;12822;50.124;8.678;2023-02-14T11:02:56;40.55;;;20.02;;
24715;SDS011;12822;50.124;8.678;2023-02-14T11:05:33;38.97;;;19.95;;
24715;SDS011;12822;50.124;8.678;2023-02-14T11:08:01;44.05;;;20.88;;
24715;SDS011;12822;50.124;8.678;2023-02-14T11:10:31;37.55;;;19.63;;
24715;SDS011;12822;50.124;8.678;2023-02-14T11:12:59;40.80;;;20.65;;
24715;SDS011;12822;50.124;8.678;2023-02-14T11:15:29;36.38;;;19.45;;
24715;SDS011;12822;50.124;8.678;2023-02-14T11:20:24;43.25;;;19.70;;
24715;SDS011;12822;50.124;8.678;2023-02-14T11:22:51;35.63;;;18.33;;
24715;SDS011;12822;50.124;8.678;2023-02-14T11:25:18;46.67;;;20.70;;
24715;SDS011;12822;50.124;8.678;2023-02-14T11:27:45;41.38;;;19.67;;
24715;SDS011;12822;50.124;8.678;2023-02-14T11:32:58;42.95;;;20.45;;
24715;SDS011;12822;50.124;8.678;2023-02-14T11:35:25;39.67;;;19.63;;
24715;SDS011;12822;50.124;8.678;2023-02-14T11:37:57;39.47;;;19.27;;
24715;SDS011;12822;50.124;8.678;2023-02-14T11:40:25;37.25;;;19.17;;
24715;SDS011;12822;50.124;8.678;2023-02-14T11:42:51;39.55;;;20.08;;
24715;SDS011;12822;50.124;8.678;2023-02-14T11:45:28;45.47;;;20.55;;
24715;SDS011;12822;50.124;8.678;2023-02-14T11:50:55;43.70;;;22.45;;
24715;SDS011;12822;50.124;8.678;2023-02-14T11:53:25;43.50;;;22.35;;
24715;SDS011;12822;50.124;8.678;2023-02-14T11:55:52;45.63;;;21.75;;
24715;SDS011;12822;50.124;8.678;2023-02-14T11:58:39;47.25;;;23.67;;
24715;SDS011;12822;50.124;8.678;2023-02-14T12:01:08;43.53;;;22.42;;
24715;SDS011;12822;50.124;8.678;2023-02-14T12:03:41;43.72;;;21.10;;
24715;SDS011;12822;50.124;8.678;2023-02-14T12:06:08;43.47;;;20.48;;
24715;SDS011;12822;50.124;8.678;2023-02-14T12:08:34;41.25;;;19.55;;
24715;SDS011;12822;50.124;8.678;2023-02-14T12:11:21;42.55;;;20.75;;
24715;SDS011;12822;50.124;8.678;2023-02-14T12:13:54;40.75;;;21.60;;
24715;SDS011;12822;50.124;8.678;2023-02-14T12:16:32;39.60;;;20.90;;
24715;SDS011;12822;50.124;8.678;2023-02-14T12:29:42;41.63;;;22.67;;
24715;SDS011;12822;50.124;8.678;2023-02-14T12:32:28;44.08;;;22.15;;
24715;SDS011;12822;50.124;8.678;2023-02-14T12:35:05;40.80;;;21.83;;
24715;SDS011;12822;50.124;8.678;2023-02-14T12:42:53;44.17;;;21.95;;
24715;SDS011;12822;50.124;8.678;2023-02-14T12:53:06;40.45;;;21.98;;
24715;SDS011;12822;50.124;8.678;2023-02-14T12:58:17;44.90;;;23.20;;
24715;SDS011;12822;50.124;8.678;2023-02-14T13:03:34;44.72;;;22.60;;
24715;SDS011;12822;50.124;8.678;2023-02-14T13:08:35;41.30;;;22.20;;
24715;SDS011;12822;50.124;8.678;2023-02-14T13:11:10;44.97;;;23.42;;
24715;SDS011;12822;50.124;8.678;2023-02-14T13:16:22;46.75;;;21.42;;
24715;SDS011;12822;50.124;8.678;2023-02-14T13:21:23;44.47;;;21.98;;
24715;SDS011;12822;50.124;8.678;2023-02-14T13:26:34;44.63;;;23.27;;
24715;SDS011;12822;50.124;8.678;2023-02-14T13:31:59;40.70;;;22.05;;
24715;SDS011;12822;50.124;8.678;2023-02-14T13:34:34;42.65;;;22.88;;
24715;SDS011;12822;50.124;8.678;2023-02-14T13:37:01;44.67;;;23.60;;
24715;SDS011;12822;50.124;8.678;2023-02-14T13:39:35;42.47;;;22.02;;
24715;SDS011;12822;50.124;8.678;2023-02-14T13:42:03;44.63;;;22.35;;
24715;SDS011;12822;50.124;8.678;2023-02-14T13:47:14;39.03;;;21.65;;
24715;SDS011;12822;50.124;8.678;2023-02-14T13:49:45;43.95;;;22.77;;
24715;SDS011;12822;50.124;8.678;2023-02-14T13:52:12;46.42;;;22.00;;
24715;SDS011;12822;50.124;8.678;2023-02-14T13:54:45;42.55;;;22.85;;
24715;SDS011;12822;50.124;8.678;2023-02-14T13:57:30;41.90;;;22.30;;
24715;SDS011;12822;50.124;8.678;2023-02-14T14:02:48;41.70;;;21.83;;
24715;SDS011;12822;50.124;8.678;2023-02-14T14:13:52;41.83;;;22.83;;
24715;SDS011;12822;50.124;8.678;2023-02-14T14:18:45;42.40;;;22.95;;
24715;SDS011;12822;50.124;8.678;2023-02-14T14:21:15;41.10;;;20.83;;
24715;SDS011;12822;50.124;8.678;2023-02-14T14:24:22;40.88;;;20.55;;
24715;SDS011;12822;50.124;8.678;2023-02-14T14:26:59;43.13;;;20.20;;
24715;SDS011;12822;50.124;8.678;2023-02-14T14:29:27;38.40;;;19.35;;
24715;SDS011;12822;50.124;8.678;2023-02-14T14:31:54;40.10;;;19.77;;
24715;SDS011;12822;50.124;8.678;2023-02-14T14:34:25;33.50;;;20.25;;
24715;SDS011;12822;50.124;8.678;2023-02-14T14:37:14;35.53;;;20.27;;
24715;SDS011;12822;50.124;8.678;2023-02-14T14:39:41;32.80;;;19.85;;
24715;SDS011;12822;50.124;8.678;2023-02-14T14:42:08;34.75;;;20.20;;
24715;SDS011;12822;50.124;8.678;2023-02-14T14:44:37;35.67;;;20.73;;
24715;SDS011;12822;50.124;8.678;2023-02-14T14:47:10;35.20;;;20.00;;
24715;SDS011;12822;50.124;8.678;2023-02-14T14:49:39;36.03;;;19.83;;
24715;SDS011;12822;50.124;8.678;2023-02-14T14:52:05;35.13;;;20.40;;
24715;SDS011;12822;50.124;8.678;2023-02-14T14:54:34;32.60;;;19.45;;
24715;SDS011;12822;50.124;8.678;2023-02-14T14:57:00;29.80;;;19.88;;
24715;SDS011;12822;50.124;8.678;2023-02-14T14:59:28;36.78;;;21.38;;
24715;SDS011;12822;50.124;8.678;2023-02-14T15:01:55;34.92;;;19.70;;
24715;SDS011;12822;50.124;8.678;2023-02-14T15:04:31;37.97;;;22.02;;
24715;SDS011;12822;50.124;8.678;2023-02-14T15:07:15;33.45;;;20.25;;
24715;SDS011;12822;50.124;8.678;2023-02-14T15:09:48;38.83;;;20.50;;
24715;SDS011;12822;50.124;8.678;2023-02-14T15:12:16;36.47;;;20.52;;
24715;SDS011;12822;50.124;8.678;2023-02-14T15:15:03;33.03;;;19.98;;
24715;SDS011;12822;50.124;8.678;2023-02-14T15:17:30;37.75;;;20.77;;
24715;SDS011;12822;50.124;8.678;2023-02-14T15:20:03;37.15;;;20.23;;
24715;SDS011;12822;50.124;8.678;2023-02-14T15:22:42;35.85;;;21.73;;
24715;SDS011;12822;50.124;8.678;2023-02-14T15:25:10;34.17;;;20.00;;
24715;SDS011;12822;50.124;8.678;2023-02-14T15:27:38;39.35;;;21.95;;
24715;SDS011;12822;50.124;8.678;2023-02-14T15:30:06;36.05;;;20.90;;
24715;SDS011;12822;50.124;8.678;2023-02-14T15:32:34;32.22;;;20.83;;
24715;SDS011;12822;50.124;8.678;2023-02-14T15:35:00;39.03;;;22.83;;
24715;SDS011;12822;50.124;8.678;2023-02-14T15:37:27;40.40;;;21.40;;
24715;SDS011;12822;50.124;8.678;2023-02-14T15:39:53;37.20;;;22.17;;
24715;SDS011;12822;50.124;8.678;2023-02-14T15:42:24;35.80;;;22.42;;
24715;SDS011;12822;50.124;8.678;2023-02-14T15:47:38;45.17;;;23.95;;
24715;SDS011;12822;50.124;8.678;2023-02-14T15:50:14;39.10;;;22.17;;
24715;SDS011;12822;50.124;8.678;2023-02-14T15:52:41;40.30;;;23.02;;
24715;SDS011;12822;50.124;8.678;2023-02-14T15:55:08;35.53;;;23.00;;
24715;SDS011;12822;50.124;8.678;2023-02-14T15:57:34;35.15;;;21.52;;
24715;SDS011;12822;50.124;8.678;2023-02-14T16:00:02;39.72;;;23.15;;
24715;SDS011;12822;50.124;8.678;2023-02-14T16:02:35;39.10;;;23.38;;
24715;SDS011;12822;50.124;8.678;2023-02-14T16:05:23;37.38;;;22.08;;
24715;SDS011;12822;50.124;8.678;2023-02-14T16:10:24;37.53;;;23.35;;
24715;SDS011;12822;50.124;8.678;2023-02-14T16:12:54;47.67;;;25.73;;
24715;SDS011;12822;50.124;8.678;2023-02-14T16:15:21;51.53;;;25.47;;
24715;SDS011;12822;50.124;8.678;2023-02-14T16:17:48;48.95;;;27.17;;
24715;SDS011;12822;50.124;8.678;2023-02-14T16:20:23;47.63;;;26.45;;
24715;SDS011;12822;50.124;8.678;2023-02-14T16:22:50;47.67;;;25.98;;
24715;SDS011;12822;50.124;8.678;2023-02-14T16:25:17;51.25;;;28.52;;
24715;SDS011;12822;50.124;8.678;2023-02-14T16:27:43;51.08;;;28.55;;
24715;SDS011;12822;50.124;8.678;2023-02-14T16:30:16;52.60;;;28.65;;
24715;SDS011;12822;50.124;8.678;2023-02-14T16:32:42;58.80;;;30.05;;
24715;SDS011;12822;50.124;8.678;2023-02-14T16:35:12;57.78;;;30.02;;
24715;SDS011;12822;50.124;8.678;2023-02-14T16:37:41;56.90;;;29.60;;
24715;SDS011;12822;50.124;8.678;2023-02-14T16:40:10;61.53;;;31.83;;
24715;SDS011;12822;50.124;8.678;2023-02-14T16:42:38;59.17;;;31.23;;
24715;SDS011;12822;50.124;8.678;2023-02-14T16:45:04;60.65;;;31.45;;
24715;SDS011;12822;50.124;8.678;2023-02-14T16:47:30;65.07;;;32.28;;
24715;SDS011;12822;50.124;8.678;2023-02-14T16:49:56;64.80;;;33.60;;
24715;SDS011;12822;50.124;8.678;2023-02-14T16:52:22;59.90;;;31.83;;
24715;SDS011;12822;50.124;8.678;2023-02-14T16:54:50;66.97;;;31.27;;
24715;SDS011;12822;50.124;8.678;2023-02-14T16:57:27;65.30;;;33.67;;
24715;SDS011;12822;50.124;8.678;2023-02-14T16:59:56;65.15;;;32.83;;